• Join FlightAware (Why Join?)
  • Login
  • US Flag 
04:31PM EDT


 

Airport Tracker/Info


-or-


 

Live Flight TrackerFlight Track Log ✈ EGF3418 ✈ 22-Apr-2013 ✈ KDFW - KAMA

Flight Track Log - Related Links

Times and Time Zones

All times are in EDT time to prevent confusion due to time zone crossing. See the EGF3418 flight status page for this flight to view local times or setup timezone preferences in your user account.

Time Position Orientation Groundspeed Altitude Reporting Facility
EDT Latitude Longitude Course Direction KTS MPH feet Rate Location/Type
04:15PM 32.8833 -97.0500 308° West 146 168 1,600  Level Dallas / Fort Worth TRACON
04:16PM 32.8333 -97.0667 196° South 191 220 3,300 1,740 Climbing Dallas / Fort Worth TRACON
04:17PM 32.7643 -97.2192 281° West  Level FlightAware Approximate
04:17PM 32.7833 -97.0833 196° South 241 277 5,200  Level Dallas / Fort Worth TRACON
04:18PM 32.8109 -97.3041 307° West  Level FlightAware Approximate
04:18PM 32.7667 -97.1667 257° West 260 299 8,000  Level Dallas / Fort Worth TRACON
04:19PM 32.8629 -97.3859 308° West  Level FlightAware Approximate
04:19PM 32.8042 -97.2528 297° West 284 327 9,900  Level Fort Worth Center
04:20PM 32.9165 -97.4664 308° West  Level FlightAware Approximate
04:20PM 32.8500 -97.3294 305° West 289 333 11,000  Level Fort Worth Center
04:21PM 32.9044 -97.4183 306° West 314 361 12,400 1,500 Climbing Fort Worth Center
04:22PM 32.9522 -97.5000 305° West 319 367 14,100 1,800 Climbing Fort Worth Center
04:23PM 33.0106 -97.5942 306° West 324 373 16,000 1,740 Climbing Fort Worth Center
04:24PM 33.0606 -97.6811 304° West 329 379 17,600 1,440 Climbing Fort Worth Center
04:25PM 33.1000 -97.7656 299° West 324 373 18,900 1,440 Climbing Fort Worth Center
04:26PM 33.1353 -97.8750 291° West 318 366 20,500 1,500 Climbing Fort Worth Center
04:27PM 33.1619 -97.9619 290° West 318 366 21,900 1,380 Climbing Fort Worth Center
04:28PM 33.1989 -98.0739 292° West 323 372 23,300 1,380 Climbing Fort Worth Center
04:29PM 33.2317 -98.1783 291° West 331 381 24,700 1,440 Climbing Fort Worth Center
04:30PM 33.2625 -98.2781 290° West 331 381 26,200 1,500 Climbing Fort Worth Center
04:31PM 33.2931 -98.3753 291° West 325 374 27,700 1,440 Climbing Fort Worth Center
04:32PM 33.3217 -98.4650 291° West 304 350 29,100 1,440 Climbing Fort Worth Center
04:33PM 33.3500 -98.5525 291° West 299 344 30,600 1,200 Climbing Fort Worth Center
04:34PM 33.3783 -98.6447 290° West 294 338 31,600 660 Climbing Fort Worth Center
04:35PM 33.4067 -98.7397 290° West 294 338 32,000 180 Climbing Fort Worth Center
04:36PM 33.4367 -98.8447 289° West 312 359 32,000  Level Fort Worth Center
04:37PM 33.4731 -98.9575 291° West 339 390 32,000  Level Fort Worth Center
04:38PM 33.5069 -99.0725 289° West 359 413 32,000  Level Fort Worth Center
04:39PM 33.5408 -99.1853 290° West 364 419 32,000  Level Fort Worth Center
04:40PM 33.5747 -99.2983 290° West 364 419 32,000  Level Fort Worth Center
04:41PM 33.6106 -99.4161 290° West 369 425 32,000  Level Fort Worth Center
04:42PM 33.6736 -99.5075 310° West 357 411 32,000  Level Fort Worth Center
04:43PM 33.7514 -99.5944 317° Northwest 368 423 32,000  Level Fort Worth Center
04:44PM 33.8253 -99.6761 317° Northwest 368 423 32,000  Level Fort Worth Center
04:45PM 33.9008 -99.7633 316° Northwest 373 429 32,000  Level Fort Worth Center
04:46PM 33.9786 -99.8481 318° Northwest 373 429 32,000  Level Fort Worth Center
04:47PM 34.0561 -99.9378 316° Northwest 373 429 32,000  Level Fort Worth Center
04:48PM 34.1314 -100.0206 318° Northwest 373 429 32,000  Level Fort Worth Center
04:49PM 34.2069 -100.1056 317° Northwest 373 429 32,000  Level Fort Worth Center
04:51PM 34.3519 -100.2669 317° Northwest 377 434 32,000  Level Albuquerque Center
04:52PM 34.4283 -100.3817 309° West 370 426 32,000 -300 Level Albuquerque Center
04:53PM 34.4900 -100.4792 308° West 366 421 31,400 -1,140 Descending Albuquerque Center
04:54PM 34.5500 -100.5750 307° West 359 413 29,700 -1,980 Descending Albuquerque Center
04:55PM 34.6111 -100.6753 307° West 366 421 27,400 -2,760 Descending Albuquerque Center
04:56PM 34.6761 -100.7794 307° West 383 441 24,000 -3,360 Descending Albuquerque Center
04:57PM 34.7375 -100.8794 307° West 376 433 20,600 -3,360 Descending Albuquerque Center
04:58PM 34.7978 -100.9781 307° West 367 422 17,200 -3,300 Descending Albuquerque Center
04:59PM 34.8831 -101.0850 314° West 367 422 13,800 -2,520 Descending Albuquerque Center
05:00PM 34.9522 -101.1753 313° West 367 422 12,100 -1,440 Descending Albuquerque Center
05:01PM 35.0189 -101.2622 313° West 356 410 10,900 -1,080 Descending Albuquerque Center
05:02PM 35.0775 -101.3397 313° West 322 371 9,900 -1,140 Descending Albuquerque Center
05:03PM 35.1294 -101.4083 313° West 296 341 8,600 -1,380 Descending Albuquerque Center
05:04PM 35.1775 -101.4714 313° West 275 316 7,100 -1,320 Descending Albuquerque Center
05:05PM 35.2331 -101.5458 312° West 259 298 6,000 -1,140 Descending Albuquerque Center